Capitol Logistics 577




RKSI
Incheon International Airport
Seoul, KR
ZBAD
Beijing Daxing International Airport
Beijing, CN

Activity Log

Date Flight Route Aircraft Duration
04/14/2022 CPX577 BINI1H BINIL G597 AGAVO A591 IKEKA W4 HCH W200 DOVIV W55 DUMAP DUM11A MD11 2h 10m

Route Details

Aircraft Information
Group: Trans-Pacific Ops
Types: B744,B763,MD11
Route Data
Demand: V
Distance: 488nm
Duration: 2h 00m
Recm'd Route: BINI1H BINIL G597 AGAVO A591 IKEKA W4 HCH W200 DOVIV W55 DUMAP DUM11A
Origin Wx: RKSI 270630Z 24014KT CAVOK 20/11 Q1002 NOSIG
Dest. Wx: ZBAD 270630Z 21007MPS 170V230 CAVOK 35/02 Q0998 NOSIG
Notes:

Financial History
Total Freight: 93,078lbs
Average Load: 93,078lbs/flt
Fuel Used: 22,931lbs
Avg. Fuel Used: 22,931lbs/flt
Fuel Expense: $8,484
Avg. Fuel Expense: $8,484
Avg. Fuel Cost: $0.37/lbs
Total Gross Income: $248,518
Pilot Pay: $259
Total Expenses: $29,141
Total Revenue: $210,349
Average Revenue: $248,518.27